sensor_id;sensor_type;location;lat;lon;timestamp;pressure;altitude;pressure_sealevel;temperature;humidity
69219;BME280;56232;53.384;-2.732;2023-03-15T00:01:55;101010.06;;;-1.12;43.46
69219;BME280;56232;53.384;-2.732;2023-03-15T00:04:21;101004.38;;;-0.65;43.51
69219;BME280;56232;53.384;-2.732;2023-03-15T00:06:46;101003.22;;;-0.11;43.50
69219;BME280;56232;53.384;-2.732;2023-03-15T00:09:11;101001.58;;;-0.87;43.69
69219;BME280;56232;53.384;-2.732;2023-03-15T00:11:37;101000.20;;;-0.31;43.70
69219;BME280;56232;53.384;-2.732;2023-03-15T00:14:02;101005.16;;;-0.32;43.58
69219;BME280;56232;53.384;-2.732;2023-03-15T00:16:27;101007.24;;;-0.36;43.64
69219;BME280;56232;53.384;-2.732;2023-03-15T00:18:53;101010.12;;;-1.48;43.71
69219;BME280;56232;53.384;-2.732;2023-03-15T00:21:18;101012.58;;;-0.95;43.68
69219;BME280;56232;53.384;-2.732;2023-03-15T00:23:43;101013.92;;;-0.43;43.78
69219;BME280;56232;53.384;-2.732;2023-03-15T00:26:09;101017.81;;;-0.39;43.72
69219;BME280;56232;53.384;-2.732;2023-03-15T00:28:48;101016.24;;;-0.99;43.20
69219;BME280;56232;53.384;-2.732;2023-03-15T00:31:03;101015.94;;;-1.00;43.16
69219;BME280;56232;53.384;-2.732;2023-03-15T00:33:26;101018.73;;;-0.43;43.27
69219;BME280;56232;53.384;-2.732;2023-03-15T00:35:51;101018.91;;;-0.48;43.30
69219;BME280;56232;53.384;-2.732;2023-03-15T00:38:17;101025.33;;;-1.06;43.36
69219;BME280;56232;53.384;-2.732;2023-03-15T00:40:42;101027.84;;;-0.53;43.33
69219;BME280;56232;53.384;-2.732;2023-03-15T00:43:09;101028.73;;;-1.22;43.34
69219;BME280;56232;53.384;-2.732;2023-03-15T00:45:38;101030.95;;;-1.71;42.98
69219;BME280;56232;53.384;-2.732;2023-03-15T00:47:58;101032.41;;;-1.24;43.16
69219;BME280;56232;53.384;-2.732;2023-03-15T00:50:24;101035.96;;;-0.75;43.28
69219;BME280;56232;53.384;-2.732;2023-03-15T00:52:48;101037.20;;;-0.78;43.35
69219;BME280;56232;53.384;-2.732;2023-03-15T00:55:16;101041.29;;;-0.87;43.30
69219;BME280;56232;53.384;-2.732;2023-03-15T00:57:40;101045.77;;;-0.89;43.38
69219;BME280;56232;53.384;-2.732;2023-03-15T01:00:07;101041.85;;;-0.87;43.43
69219;BME280;56232;53.384;-2.732;2023-03-15T01:02:30;101044.12;;;-0.86;43.29
69219;BME280;56232;53.384;-2.732;2023-03-15T01:04:56;101046.40;;;-0.86;43.28
69219;BME280;56232;53.384;-2.732;2023-03-15T01:07:21;101052.84;;;-0.34;43.32
69219;BME280;56232;53.384;-2.732;2023-03-15T01:09:46;101058.99;;;-0.82;43.37
69219;BME280;56232;53.384;-2.732;2023-03-15T01:12:12;101066.07;;;-0.90;43.39
69219;BME280;56232;53.384;-2.732;2023-03-15T01:14:37;101069.20;;;-1.52;43.26
69219;BME280;56232;53.384;-2.732;2023-03-15T01:17:03;101063.83;;;-1.08;43.44
69219;BME280;56232;53.384;-2.732;2023-03-15T01:19:28;101060.77;;;-1.13;43.60
69219;BME280;56232;53.384;-2.732;2023-03-15T01:21:53;101055.44;;;-1.79;43.68
69219;BME280;56232;53.384;-2.732;2023-03-15T01:24:18;101053.66;;;-0.66;43.70
69219;BME280;56232;53.384;-2.732;2023-03-15T01:26:43;101058.40;;;-1.09;43.66
69219;BME280;56232;53.384;-2.732;2023-03-15T01:29:09;101063.04;;;-0.69;43.74
69219;BME280;56232;53.384;-2.732;2023-03-15T01:31:34;101067.98;;;-1.28;43.77
69219;BME280;56232;53.384;-2.732;2023-03-15T01:33:59;101069.85;;;-1.39;43.89
69219;BME280;56232;53.384;-2.732;2023-03-15T01:36:25;101072.17;;;-1.51;44.29
69219;BME280;56232;53.384;-2.732;2023-03-15T01:38:51;101081.16;;;-1.50;44.61
69219;BME280;56232;53.384;-2.732;2023-03-15T01:41:18;101085.51;;;-1.41;44.62
69219;BME280;56232;53.384;-2.732;2023-03-15T01:43:42;101090.16;;;-1.32;44.58
69219;BME280;56232;53.384;-2.732;2023-03-15T01:46:14;101092.76;;;-0.75;44.49
69219;BME280;56232;53.384;-2.732;2023-03-15T01:48:37;101092.10;;;-1.82;44.51
69219;BME280;56232;53.384;-2.732;2023-03-15T01:50:59;101091.58;;;-0.25;44.74
69219;BME280;56232;53.384;-2.732;2023-03-15T01:53:24;101088.57;;;-1.29;44.96
69219;BME280;56232;53.384;-2.732;2023-03-15T01:55:49;101090.29;;;-1.35;44.81
69219;BME280;56232;53.384;-2.732;2023-03-15T01:58:19;101089.03;;;-1.43;44.95
69219;BME280;56232;53.384;-2.732;2023-03-15T02:00:39;101081.99;;;-2.03;45.15
69219;BME280;56232;53.384;-2.732;2023-03-15T02:03:07;101080.15;;;-1.94;45.24
69219;BME280;56232;53.384;-2.732;2023-03-15T02:05:34;101080.14;;;-1.29;45.14
69219;BME280;56232;53.384;-2.732;2023-03-15T02:07:55;101078.81;;;-1.36;45.35
69219;BME280;56232;53.384;-2.732;2023-03-15T02:10:24;101078.53;;;-1.25;45.40
69219;BME280;56232;53.384;-2.732;2023-03-15T02:12:48;101075.69;;;-1.20;45.28
69219;BME280;56232;53.384;-2.732;2023-03-15T02:15:12;101073.21;;;-1.18;45.10
69219;BME280;56232;53.384;-2.732;2023-03-15T02:17:39;101074.64;;;-1.21;45.04
69219;BME280;56232;53.384;-2.732;2023-03-15T02:20:11;101078.17;;;-0.70;45.09
69219;BME280;56232;53.384;-2.732;2023-03-15T02:22:31;101078.70;;;-1.16;44.98
69219;BME280;56232;53.384;-2.732;2023-03-15T02:24:58;101078.72;;;-1.14;44.83
69219;BME280;56232;53.384;-2.732;2023-03-15T02:27:23;101076.15;;;-1.14;44.77
69219;BME280;56232;53.384;-2.732;2023-03-15T02:29:44;101081.11;;;-1.68;44.71
69219;BME280;56232;53.384;-2.732;2023-03-15T02:32:09;101082.41;;;-1.13;44.55
69219;BME280;56232;53.384;-2.732;2023-03-15T02:34:35;101077.73;;;-1.19;44.47
69219;BME280;56232;53.384;-2.732;2023-03-15T02:37:00;101074.86;;;-0.74;44.51
69219;BME280;56232;53.384;-2.732;2023-03-15T02:39:25;101080.05;;;-0.84;44.41
69219;BME280;56232;53.384;-2.732;2023-03-15T02:41:52;101083.76;;;-1.46;44.48
69219;BME280;56232;53.384;-2.732;2023-03-15T02:44:20;101088.62;;;-1.10;44.52
69219;BME280;56232;53.384;-2.732;2023-03-15T02:46:43;101092.97;;;-1.71;44.41
69219;BME280;56232;53.384;-2.732;2023-03-15T02:49:07;101092.30;;;-1.72;44.35
69219;BME280;56232;53.384;-2.732;2023-03-15T02:51:33;101094.38;;;-1.80;44.13
69219;BME280;56232;53.384;-2.732;2023-03-15T02:53:58;101098.15;;;-1.85;44.35
69219;BME280;56232;53.384;-2.732;2023-03-15T02:56:23;101097.73;;;-1.46;44.67
69219;BME280;56232;53.384;-2.732;2023-03-15T02:58:48;101097.32;;;-1.95;44.45
69219;BME280;56232;53.384;-2.732;2023-03-15T03:01:14;101098.46;;;-1.54;44.59
69219;BME280;56232;53.384;-2.732;2023-03-15T03:03:39;101098.82;;;-2.64;44.75
69219;BME280;56232;53.384;-2.732;2023-03-15T03:06:04;101094.62;;;-1.12;44.63
69219;BME280;56232;53.384;-2.732;2023-03-15T03:08:30;101092.21;;;-1.62;44.73
69219;BME280;56232;53.384;-2.732;2023-03-15T03:10:56;101089.52;;;-1.09;44.72
69219;BME280;56232;53.384;-2.732;2023-03-15T03:13:21;101090.25;;;-1.20;44.69
69219;BME280;56232;53.384;-2.732;2023-03-15T03:15:48;101095.62;;;-1.17;44.81
69219;BME280;56232;53.384;-2.732;2023-03-15T03:18:12;101096.42;;;-1.18;44.78
69219;BME280;56232;53.384;-2.732;2023-03-15T03:20:37;101096.21;;;-1.65;44.65
69219;BME280;56232;53.384;-2.732;2023-03-15T03:23:03;101098.82;;;-2.22;44.78
69219;BME280;56232;53.384;-2.732;2023-03-15T03:25:28;101098.30;;;-1.19;44.61
69219;BME280;56232;53.384;-2.732;2023-03-15T03:27:54;101095.60;;;-1.24;44.67
69219;BME280;56232;53.384;-2.732;2023-03-15T03:30:19;101089.23;;;-2.25;44.61
69219;BME280;56232;53.384;-2.732;2023-03-15T03:32:45;101086.27;;;-1.77;44.81
69219;BME280;56232;53.384;-2.732;2023-03-15T03:35:10;101090.08;;;-1.29;44.55
69219;BME280;56232;53.384;-2.732;2023-03-15T03:37:35;101091.72;;;-1.80;44.72
69219;BME280;56232;53.384;-2.732;2023-03-15T03:40:01;101090.74;;;-1.70;44.71
69219;BME280;56232;53.384;-2.732;2023-03-15T03:42:26;101085.22;;;-1.23;44.50
69219;BME280;56232;53.384;-2.732;2023-03-15T03:44:51;101084.93;;;-2.30;44.22
69219;BME280;56232;53.384;-2.732;2023-03-15T03:47:17;101086.77;;;-1.81;44.24
69219;BME280;56232;53.384;-2.732;2023-03-15T03:49:42;101083.07;;;-1.85;44.34
69219;BME280;56232;53.384;-2.732;2023-03-15T03:52:07;101089.12;;;-1.74;44.45
69219;BME280;56232;53.384;-2.732;2023-03-15T03:54:33;101088.33;;;-1.64;44.26
69219;BME280;56232;53.384;-2.732;2023-03-15T03:56:59;101092.06;;;-1.96;44.57
69219;BME280;56232;53.384;-2.732;2023-03-15T03:59:24;101097.06;;;-0.75;44.63
69219;BME280;56232;53.384;-2.732;2023-03-15T04:01:49;101091.91;;;-1.51;44.74
69219;BME280;56232;53.384;-2.732;2023-03-15T04:04:14;101088.82;;;-1.18;44.81
69219;BME280;56232;53.384;-2.732;2023-03-15T04:06:39;101088.92;;;-1.55;44.49
69219;BME280;56232;53.384;-2.732;2023-03-15T04:09:04;101082.69;;;-1.52;44.10
69219;BME280;56232;53.384;-2.732;2023-03-15T04:11:30;101079.93;;;-1.16;43.05
69219;BME280;56232;53.384;-2.732;2023-03-15T04:13:55;101082.14;;;-1.15;43.07
69219;BME280;56232;53.384;-2.732;2023-03-15T04:16:21;101083.48;;;-0.75;43.45
69219;BME280;56232;53.384;-2.732;2023-03-15T04:18:46;101084.21;;;-1.33;43.16
69219;BME280;56232;53.384;-2.732;2023-03-15T04:21:11;101090.57;;;-1.55;42.01
69219;BME280;56232;53.384;-2.732;2023-03-15T04:23:37;101092.71;;;-1.76;43.27
69219;BME280;56232;53.384;-2.732;2023-03-15T04:26:03;101089.05;;;-1.35;42.92
69219;BME280;56232;53.384;-2.732;2023-03-15T04:28:27;101086.76;;;-2.02;42.82
69219;BME280;56232;53.384;-2.732;2023-03-15T04:30:52;101087.85;;;-1.97;43.41
69219;BME280;56232;53.384;-2.732;2023-03-15T04:33:18;101086.62;;;-1.37;43.48
69219;BME280;56232;53.384;-2.732;2023-03-15T04:35:43;101081.16;;;-1.06;44.20
69219;BME280;56232;53.384;-2.732;2023-03-15T04:38:09;101077.49;;;-0.83;43.55
69219;BME280;56232;53.384;-2.732;2023-03-15T04:40:34;101078.27;;;-1.14;43.71
69219;BME280;56232;53.384;-2.732;2023-03-15T04:43:01;101079.69;;;-1.04;43.81
69219;BME280;56232;53.384;-2.732;2023-03-15T04:45:25;101073.99;;;-1.01;43.86
69219;BME280;56232;53.384;-2.732;2023-03-15T04:47:52;101073.18;;;-1.08;42.39
69219;BME280;56232;53.384;-2.732;2023-03-15T04:50:18;101072.76;;;-1.22;43.13
69219;BME280;56232;53.384;-2.732;2023-03-15T04:52:42;101082.43;;;-1.25;42.97
69219;BME280;56232;53.384;-2.732;2023-03-15T04:55:09;101087.06;;;-0.86;42.67
69219;BME280;56232;53.384;-2.732;2023-03-15T04:57:33;101088.41;;;-1.51;43.08
69219;BME280;56232;53.384;-2.732;2023-03-15T04:59:59;101088.13;;;-1.36;43.27
69219;BME280;56232;53.384;-2.732;2023-03-15T05:02:25;101095.99;;;-1.55;43.85
69219;BME280;56232;53.384;-2.732;2023-03-15T05:04:50;101107.97;;;-2.03;43.98
69219;BME280;56232;53.384;-2.732;2023-03-15T05:07:16;101110.05;;;-1.98;44.22
69219;BME280;56232;53.384;-2.732;2023-03-15T05:09:41;101100.34;;;-2.01;44.08
69219;BME280;56232;53.384;-2.732;2023-03-15T05:12:07;101097.74;;;-1.42;43.45
69219;BME280;56232;53.384;-2.732;2023-03-15T05:14:32;101100.23;;;-0.95;43.94
69219;BME280;56232;53.384;-2.732;2023-03-15T05:16:57;101103.79;;;-2.04;44.19
69219;BME280;56232;53.384;-2.732;2023-03-15T05:19:22;101106.81;;;-2.08;43.71
69219;BME280;56232;53.384;-2.732;2023-03-15T05:21:48;101111.35;;;-1.05;44.26
69219;BME280;56232;53.384;-2.732;2023-03-15T05:24:13;101113.67;;;-0.95;43.66
69219;BME280;56232;53.384;-2.732;2023-03-15T05:26:38;101114.79;;;-1.24;44.36
69219;BME280;56232;53.384;-2.732;2023-03-15T05:29:04;101115.31;;;-1.97;44.45
69219;BME280;56232;53.384;-2.732;2023-03-15T05:31:29;101114.41;;;-1.27;44.45
69219;BME280;56232;53.384;-2.732;2023-03-15T05:33:55;101119.03;;;-1.10;44.07
69219;BME280;56232;53.384;-2.732;2023-03-15T05:36:20;101118.29;;;-1.11;44.49
69219;BME280;56232;53.384;-2.732;2023-03-15T05:38:46;101111.43;;;-0.60;44.63
69219;BME280;56232;53.384;-2.732;2023-03-15T05:41:11;101111.34;;;-1.12;44.08
69219;BME280;56232;53.384;-2.732;2023-03-15T05:43:37;101111.82;;;-1.18;44.05
69219;BME280;56232;53.384;-2.732;2023-03-15T05:46:02;101110.93;;;-1.21;43.66
69219;BME280;56232;53.384;-2.732;2023-03-15T05:48:27;101113.74;;;-1.30;43.58
69219;BME280;56232;53.384;-2.732;2023-03-15T05:50:52;101117.12;;;-1.35;44.17
69219;BME280;56232;53.384;-2.732;2023-03-15T05:53:19;101114.86;;;-1.23;44.13
69219;BME280;56232;53.384;-2.732;2023-03-15T05:55:44;101120.72;;;-1.33;43.91
69219;BME280;56232;53.384;-2.732;2023-03-15T05:58:09;101121.62;;;-0.80;44.13
69219;BME280;56232;53.384;-2.732;2023-03-15T06:00:34;101117.34;;;-1.31;43.99
69219;BME280;56232;53.384;-2.732;2023-03-15T06:02:59;101113.46;;;-1.38;43.87
69219;BME280;56232;53.384;-2.732;2023-03-15T06:05:24;101118.78;;;-1.37;44.01
69219;BME280;56232;53.384;-2.732;2023-03-15T06:07:50;101114.25;;;-1.37;44.04
69219;BME280;56232;53.384;-2.732;2023-03-15T06:10:17;101113.71;;;-1.48;44.17
69219;BME280;56232;53.384;-2.732;2023-03-15T06:12:40;101116.30;;;-1.03;43.87
69219;BME280;56232;53.384;-2.732;2023-03-15T06:15:07;101119.92;;;-1.59;44.08
69219;BME280;56232;53.384;-2.732;2023-03-15T06:17:31;101126.48;;;-1.63;43.75
69219;BME280;56232;53.384;-2.732;2023-03-15T06:19:56;101127.91;;;-1.10;43.89
69219;BME280;56232;53.384;-2.732;2023-03-15T06:22:21;101129.91;;;-1.52;44.16
69219;BME280;56232;53.384;-2.732;2023-03-15T06:24:47;101130.53;;;-1.52;44.14
69219;BME280;56232;53.384;-2.732;2023-03-15T06:27:12;101125.61;;;-1.25;43.57
69219;BME280;56232;53.384;-2.732;2023-03-15T06:29:37;101127.28;;;-2.10;43.66
69219;BME280;56232;53.384;-2.732;2023-03-15T06:32:04;101122.92;;;-0.80;43.65
69219;BME280;56232;53.384;-2.732;2023-03-15T06:34:29;101122.93;;;-1.86;43.19
69219;BME280;56232;53.384;-2.732;2023-03-15T06:36:54;101126.00;;;-1.31;42.99
69219;BME280;56232;53.384;-2.732;2023-03-15T06:39:19;101126.40;;;-0.59;43.22
69219;BME280;56232;53.384;-2.732;2023-03-15T06:41:44;101132.78;;;-1.15;43.53
69219;BME280;56232;53.384;-2.732;2023-03-15T06:44:10;101136.82;;;-0.89;43.88
69219;BME280;56232;53.384;-2.732;2023-03-15T06:46:35;101134.88;;;-1.04;43.74
69219;BME280;56232;53.384;-2.732;2023-03-15T06:49:01;101132.12;;;0.36;43.96
69219;BME280;56232;53.384;-2.732;2023-03-15T06:51:26;101131.97;;;-0.28;43.87
69219;BME280;56232;53.384;-2.732;2023-03-15T06:53:51;101130.69;;;0.25;43.91
69219;BME280;56232;53.384;-2.732;2023-03-15T06:56:17;101137.30;;;0.58;43.51
69219;BME280;56232;53.384;-2.732;2023-03-15T06:58:42;101133.16;;;-0.35;43.83
69219;BME280;56232;53.384;-2.732;2023-03-15T07:01:10;101131.58;;;1.01;43.26
69219;BME280;56232;53.384;-2.732;2023-03-15T07:03:33;101134.20;;;0.44;43.30
69219;BME280;56232;53.384;-2.732;2023-03-15T07:05:58;101136.97;;;1.26;43.33
69219;BME280;56232;53.384;-2.732;2023-03-15T07:08:24;101135.13;;;0.81;42.99
69219;BME280;56232;53.384;-2.732;2023-03-15T07:10:49;101131.72;;;0.22;42.78
69219;BME280;56232;53.384;-2.732;2023-03-15T07:13:14;101124.82;;;0.01;42.84
69219;BME280;56232;53.384;-2.732;2023-03-15T07:15:40;101121.26;;;0.03;43.09
69219;BME280;56232;53.384;-2.732;2023-03-15T07:18:05;101116.21;;;0.64;42.93
69219;BME280;56232;53.384;-2.732;2023-03-15T07:20:30;101112.63;;;0.81;43.03
69219;BME280;56232;53.384;-2.732;2023-03-15T07:22:55;101113.78;;;0.48;42.18
69219;BME280;56232;53.384;-2.732;2023-03-15T07:25:21;101116.91;;;1.11;42.54
69219;BME280;56232;53.384;-2.732;2023-03-15T07:27:46;101114.79;;;0.57;42.38
69219;BME280;56232;53.384;-2.732;2023-03-15T07:30:13;101104.94;;;0.18;42.50
69219;BME280;56232;53.384;-2.732;2023-03-15T07:32:37;101102.55;;;0.77;42.78
69219;BME280;56232;53.384;-2.732;2023-03-15T07:35:04;101105.37;;;1.12;42.15
69219;BME280;56232;53.384;-2.732;2023-03-15T07:37:28;101102.73;;;0.96;41.57
69219;BME280;56232;53.384;-2.732;2023-03-15T07:39:53;101099.55;;;1.25;42.20
69219;BME280;56232;53.384;-2.732;2023-03-15T07:42:19;101099.62;;;1.35;42.42
69219;BME280;56232;53.384;-2.732;2023-03-15T07:44:44;101103.62;;;1.09;42.61
69219;BME280;56232;53.384;-2.732;2023-03-15T07:47:09;101104.35;;;1.37;42.62
69219;BME280;56232;53.384;-2.732;2023-03-15T07:49:34;101105.96;;;0.62;43.23
69219;BME280;56232;53.384;-2.732;2023-03-15T07:51:59;101106.80;;;1.25;43.18
69219;BME280;56232;53.384;-2.732;2023-03-15T07:54:25;101109.53;;;2.86;42.52
69219;BME280;56232;53.384;-2.732;2023-03-15T07:56:50;101110.96;;;1.97;42.67
69219;BME280;56232;53.384;-2.732;2023-03-15T07:59:16;101112.19;;;2.39;42.46
69219;BME280;56232;53.384;-2.732;2023-03-15T08:01:41;101105.45;;;2.81;42.43
69219;BME280;56232;53.384;-2.732;2023-03-15T08:04:07;101104.95;;;3.64;42.12
69219;BME280;56232;53.384;-2.732;2023-03-15T08:06:32;101105.48;;;3.98;41.92
69219;BME280;56232;53.384;-2.732;2023-03-15T08:08:57;101111.45;;;4.60;40.64
69219;BME280;56232;53.384;-2.732;2023-03-15T08:11:23;101111.72;;;5.32;40.35
69219;BME280;56232;53.384;-2.732;2023-03-15T08:13:49;101112.09;;;5.38;39.68
69219;BME280;56232;53.384;-2.732;2023-03-15T08:16:14;101110.40;;;6.65;39.90
69219;BME280;56232;53.384;-2.732;2023-03-15T08:18:40;101107.92;;;7.01;40.01
69219;BME280;56232;53.384;-2.732;2023-03-15T08:21:05;101106.15;;;6.39;39.51
69219;BME280;56232;53.384;-2.732;2023-03-15T08:23:31;101104.23;;;6.97;39.13
69219;BME280;56232;53.384;-2.732;2023-03-15T08:25:57;101100.64;;;6.15;38.81
69219;BME280;56232;53.384;-2.732;2023-03-15T08:28:22;101100.62;;;6.24;39.02
69219;BME280;56232;53.384;-2.732;2023-03-15T08:30:47;101099.81;;;6.14;39.11
69219;BME280;56232;53.384;-2.732;2023-03-15T08:33:13;101099.07;;;5.79;38.47
69219;BME280;56232;53.384;-2.732;2023-03-15T08:35:39;101099.39;;;5.54;38.34
69219;BME280;56232;53.384;-2.732;2023-03-15T08:38:04;101098.21;;;5.44;38.80
69219;BME280;56232;53.384;-2.732;2023-03-15T08:40:30;101098.81;;;5.70;38.45
69219;BME280;56232;53.384;-2.732;2023-03-15T08:42:56;101101.50;;;5.90;38.64
69219;BME280;56232;53.384;-2.732;2023-03-15T08:45:22;101104.51;;;5.80;38.61
69219;BME280;56232;53.384;-2.732;2023-03-15T08:47:47;101108.34;;;5.27;38.87
69219;BME280;56232;53.384;-2.732;2023-03-15T08:50:14;101105.24;;;4.61;39.63
69219;BME280;56232;53.384;-2.732;2023-03-15T08:52:39;101107.70;;;5.02;39.00
69219;BME280;56232;53.384;-2.732;2023-03-15T08:55:05;101110.84;;;4.83;38.82
69219;BME280;56232;53.384;-2.732;2023-03-15T08:57:31;101112.69;;;4.26;39.17
69219;BME280;56232;53.384;-2.732;2023-03-15T08:59:55;101107.55;;;4.97;39.44
69219;BME280;56232;53.384;-2.732;2023-03-15T09:02:21;101103.56;;;5.17;39.64
69219;BME280;56232;53.384;-2.732;2023-03-15T09:04:47;101104.23;;;5.45;40.23
69219;BME280;56232;53.384;-2.732;2023-03-15T09:07:13;101108.16;;;5.84;39.82
69219;BME280;56232;53.384;-2.732;2023-03-15T09:09:39;101106.58;;;5.92;39.57
69219;BME280;56232;53.384;-2.732;2023-03-15T09:12:05;101103.89;;;6.11;39.28
69219;BME280;56232;53.384;-2.732;2023-03-15T09:14:29;101105.45;;;5.55;39.57
69219;BME280;56232;53.384;-2.732;2023-03-15T09:16:54;101106.26;;;5.58;39.14
69219;BME280;56232;53.384;-2.732;2023-03-15T09:19:20;101105.14;;;5.62;39.61
69219;BME280;56232;53.384;-2.732;2023-03-15T09:21:46;101107.68;;;6.68;39.88
69219;BME280;56232;53.384;-2.732;2023-03-15T09:24:12;101100.94;;;5.79;39.47
69219;BME280;56232;53.384;-2.732;2023-03-15T09:26:37;101102.05;;;6.01;39.16
69219;BME280;56232;53.384;-2.732;2023-03-15T09:29:02;101103.85;;;5.98;38.98
69219;BME280;56232;53.384;-2.732;2023-03-15T09:31:28;101110.01;;;6.17;39.45
69219;BME280;56232;53.384;-2.732;2023-03-15T09:33:53;101113.38;;;6.61;39.72
69219;BME280;56232;53.384;-2.732;2023-03-15T09:36:19;101115.78;;;6.62;39.13
69219;BME280;56232;53.384;-2.732;2023-03-15T09:38:45;101115.91;;;7.41;39.16
69219;BME280;56232;53.384;-2.732;2023-03-15T09:41:18;101120.88;;;6.95;38.67
69219;BME280;56232;53.384;-2.732;2023-03-15T09:43:46;101120.78;;;7.36;37.41
69219;BME280;56232;53.384;-2.732;2023-03-15T09:46:12;101118.93;;;6.39;38.15
69219;BME280;56232;53.384;-2.732;2023-03-15T09:48:31;101115.46;;;6.47;38.35
69219;BME280;56232;53.384;-2.732;2023-03-15T09:50:57;101114.19;;;6.56;38.24
69219;BME280;56232;53.384;-2.732;2023-03-15T09:53:25;101113.31;;;7.15;38.06
69219;BME280;56232;53.384;-2.732;2023-03-15T09:55:46;101110.06;;;6.60;38.65
69219;BME280;56232;53.384;-2.732;2023-03-15T09:58:13;101099.95;;;7.99;37.86
69219;BME280;56232;53.384;-2.732;2023-03-15T10:00:39;101100.82;;;7.04;37.72
69219;BME280;56232;53.384;-2.732;2023-03-15T10:03:02;101097.14;;;7.44;38.59
69219;BME280;56232;53.384;-2.732;2023-03-15T10:05:35;101091.48;;;8.02;38.69
69219;BME280;56232;53.384;-2.732;2023-03-15T10:07:53;101093.75;;;8.60;37.47
69219;BME280;56232;53.384;-2.732;2023-03-15T10:10:23;101091.77;;;8.55;37.53
69219;BME280;56232;53.384;-2.732;2023-03-15T10:12:50;101088.33;;;7.90;38.06
69219;BME280;56232;53.384;-2.732;2023-03-15T10:15:21;101088.27;;;8.08;37.47
69219;BME280;56232;53.384;-2.732;2023-03-15T10:17:40;101083.06;;;8.11;36.67
69219;BME280;56232;53.384;-2.732;2023-03-15T10:20:05;101081.97;;;8.97;36.47
69219;BME280;56232;53.384;-2.732;2023-03-15T10:22:30;101079.36;;;8.91;37.11
69219;BME280;56232;53.384;-2.732;2023-03-15T10:24:55;101077.67;;;8.93;36.58
69219;BME280;56232;53.384;-2.732;2023-03-15T10:27:21;101077.14;;;9.00;37.01
69219;BME280;56232;53.384;-2.732;2023-03-15T10:29:44;101072.25;;;9.03;36.70
69219;BME280;56232;53.384;-2.732;2023-03-15T10:32:15;101074.12;;;8.01;37.57
69219;BME280;56232;53.384;-2.732;2023-03-15T10:34:34;101072.18;;;8.23;37.65
69219;BME280;56232;53.384;-2.732;2023-03-15T10:37:00;101068.26;;;9.46;37.37
69219;BME280;56232;53.384;-2.732;2023-03-15T10:39:26;101067.98;;;8.80;37.16
69219;BME280;56232;53.384;-2.732;2023-03-15T10:41:52;101068.05;;;8.98;37.21
69219;BME280;56232;53.384;-2.732;2023-03-15T10:44:19;101063.35;;;9.22;37.17
69219;BME280;56232;53.384;-2.732;2023-03-15T10:49:11;101054.69;;;9.03;37.39
69219;BME280;56232;53.384;-2.732;2023-03-15T10:51:38;101049.77;;;8.80;36.85
69219;BME280;56232;53.384;-2.732;2023-03-15T10:54:03;101050.11;;;9.03;36.47
69219;BME280;56232;53.384;-2.732;2023-03-15T10:56:28;101045.66;;;9.28;36.87
69219;BME280;56232;53.384;-2.732;2023-03-15T10:58:53;101050.76;;;9.83;35.82
69219;BME280;56232;53.384;-2.732;2023-03-15T11:01:23;101051.29;;;9.22;35.85
69219;BME280;56232;53.384;-2.732;2023-03-15T11:03:43;101048.18;;;8.84;36.67
69219;BME280;56232;53.384;-2.732;2023-03-15T11:06:18;101048.33;;;9.90;37.01
69219;BME280;56232;53.384;-2.732;2023-03-15T11:08:37;101044.88;;;9.97;36.41
69219;BME280;56232;53.384;-2.732;2023-03-15T11:11:00;101039.72;;;9.85;35.98
69219;BME280;56232;53.384;-2.732;2023-03-15T11:13:27;101038.26;;;9.78;36.32
69219;BME280;56232;53.384;-2.732;2023-03-15T11:15:57;101036.45;;;8.74;36.32
69219;BME280;56232;53.384;-2.732;2023-03-15T11:18:25;101036.29;;;9.95;36.29
69219;BME280;56232;53.384;-2.732;2023-03-15T11:20:43;101031.59;;;10.11;36.85
69219;BME280;56232;53.384;-2.732;2023-03-15T11:23:13;101032.07;;;9.12;36.29
69219;BME280;56232;53.384;-2.732;2023-03-15T11:25:34;101023.96;;;10.35;36.84
69219;BME280;56232;53.384;-2.732;2023-03-15T11:28:00;101023.55;;;9.54;36.84
69219;BME280;56232;53.384;-2.732;2023-03-15T11:30:28;101021.24;;;9.72;36.95
69219;BME280;56232;53.384;-2.732;2023-03-15T11:32:52;101018.70;;;9.96;36.70
69219;BME280;56232;53.384;-2.732;2023-03-15T11:35:22;101018.42;;;10.11;37.14
69219;BME280;56232;53.384;-2.732;2023-03-15T11:37:46;101011.86;;;11.24;35.42
69219;BME280;56232;53.384;-2.732;2023-03-15T11:40:14;101002.34;;;9.90;34.92
69219;BME280;56232;53.384;-2.732;2023-03-15T11:42:38;101000.34;;;9.60;34.65
69219;BME280;56232;53.384;-2.732;2023-03-15T11:45:03;100997.77;;;10.13;34.90
69219;BME280;56232;53.384;-2.732;2023-03-15T11:47:34;100998.37;;;9.57;35.51
69219;BME280;56232;53.384;-2.732;2023-03-15T11:49:53;101003.22;;;9.49;35.59
69219;BME280;56232;53.384;-2.732;2023-03-15T11:52:20;101010.78;;;10.62;35.99
69219;BME280;56232;53.384;-2.732;2023-03-15T11:54:43;101007.06;;;10.62;34.92
69219;BME280;56232;53.384;-2.732;2023-03-15T11:59:36;101014.21;;;9.78;35.33
69219;BME280;56232;53.384;-2.732;2023-03-15T12:06:52;101009.73;;;10.22;35.68
69219;BME280;56232;53.384;-2.732;2023-03-15T12:11:42;101001.64;;;9.47;35.42
69219;BME280;56232;53.384;-2.732;2023-03-15T12:16:40;100999.80;;;10.26;35.95
69219;BME280;56232;53.384;-2.732;2023-03-15T12:19:01;100995.26;;;10.21;36.24
69219;BME280;56232;53.384;-2.732;2023-03-15T12:21:31;100998.41;;;10.20;36.04
69219;BME280;56232;53.384;-2.732;2023-03-15T12:23:59;100994.43;;;9.25;36.94
69219;BME280;56232;53.384;-2.732;2023-03-15T12:26:24;100994.87;;;9.43;36.22
69219;BME280;56232;53.384;-2.732;2023-03-15T12:28:49;100991.95;;;10.44;36.17
69219;BME280;56232;53.384;-2.732;2023-03-15T12:31:10;100982.83;;;10.04;35.89
69219;BME280;56232;53.384;-2.732;2023-03-15T12:33:45;100984.00;;;9.00;36.42
69219;BME280;56232;53.384;-2.732;2023-03-15T12:36:01;100981.85;;;9.29;37.07
69219;BME280;56232;53.384;-2.732;2023-03-15T12:38:31;100976.57;;;9.56;37.22
69219;BME280;56232;53.384;-2.732;2023-03-15T12:40:54;100965.97;;;9.04;37.12
69219;BME280;56232;53.384;-2.732;2023-03-15T12:45:44;100958.79;;;9.37;36.46
69219;BME280;56232;53.384;-2.732;2023-03-15T12:50:36;100953.01;;;9.35;34.97
69219;BME280;56232;53.384;-2.732;2023-03-15T12:53:02;100951.29;;;9.01;37.23